Time;durP1;ratioP1;P1;durP2;ratioP2;P2;SDS_P1;SDS_P2;PMS_P1;PMS_P2;Temp;Humidity;BMP_temperature;BMP_pressure;BME280_temperature;BME280_humidity;BME280_pressure;Samples;Min_cycle;Max_cycle;Signal;HPM_P1;HPM_P2
2023/09/03 00:01:57;;;;;;;53.67;33.95;;;13.90;99.90;;;;;;5051383;28;20051;-80
2023/09/03 00:04:24;;;;;;;53.95;34.38;;;13.80;99.90;;;;;;5054795;28;20042;-80
2023/09/03 00:06:51;;;;;;;44.38;32.58;;;13.70;99.90;;;;;;5063045;28;20042;-80
2023/09/03 00:09:18;;;;;;;43.90;30.83;;;13.60;99.90;;;;;;5073356;28;20033;-79
2023/09/03 00:11:45;;;;;;;50.33;32.53;;;13.50;99.90;;;;;;5049098;28;20075;-80
2023/09/03 00:14:12;;;;;;;48.05;33.03;;;13.40;99.90;;;;;;5070713;28;20560;-80
2023/09/03 00:16:38;;;;;;;46.33;33.20;;;13.40;99.90;;;;;;5032964;28;20040;-79
2023/09/03 00:19:05;;;;;;;54.13;35.25;;;13.20;99.90;;;;;;5044539;28;20427;-80
2023/09/03 00:21:32;;;;;;;56.20;36.83;;;13.30;99.90;;;;;;5047973;28;20044;-79
2023/09/03 00:23:59;;;;;;;70.40;40.92;;;13.30;99.90;;;;;;5075183;28;20037;-80
2023/09/03 00:26:27;;;;;;;52.17;35.30;;;13.40;99.90;;;;;;5073975;28;20069;-80
2023/09/03 00:28:58;;;;;;;46.05;32.05;;;13.30;99.90;;;;;;5041350;28;20108;-80
2023/09/03 00:31:26;;;;;;;53.00;34.60;;;13.30;99.90;;;;;;5055387;28;20356;-80
2023/09/03 00:33:53;;;;;;;48.47;34.17;;;13.30;99.90;;;;;;5057432;28;20045;-79
2023/09/03 00:36:20;;;;;;;59.42;33.78;;;13.30;99.90;;;;;;5074901;28;20033;-79
2023/09/03 00:38:50;;;;;;;49.20;32.55;;;13.20;99.90;;;;;;5066781;28;20071;-80
2023/09/03 00:41:17;;;;;;;47.92;32.22;;;13.10;99.90;;;;;;5058194;28;20032;-79
2023/09/03 00:43:44;;;;;;;47.83;31.35;;;13.00;99.90;;;;;;5069654;28;20037;-80
2023/09/03 00:46:11;;;;;;;44.08;30.92;;;13.20;99.90;;;;;;5051827;28;20040;-79
2023/09/03 00:48:40;;;;;;;56.17;33.63;;;13.20;99.90;;;;;;5052710;28;20049;-80
2023/09/03 00:51:09;;;;;;;53.45;32.85;;;13.20;99.90;;;;;;5058549;28;20053;-80
2023/09/03 00:53:38;;;;;;;47.13;31.85;;;13.10;99.90;;;;;;5047895;28;20048;-80
2023/09/03 00:56:07;;;;;;;52.30;32.10;;;13.10;99.90;;;;;;5059982;28;20040;-79
2023/09/03 00:58:36;;;;;;;52.50;31.98;;;13.30;99.90;;;;;;5054023;28;20060;-79
2023/09/03 01:01:04;;;;;;;52.83;32.35;;;13.40;99.90;;;;;;5037540;28;20159;-79
2023/09/03 01:03:32;;;;;;;59.75;33.28;;;13.30;99.90;;;;;;5065877;28;20045;-79
2023/09/03 01:05:59;;;;;;;51.15;33.05;;;13.30;99.90;;;;;;5053612;28;20112;-79
2023/09/03 01:08:27;;;;;;;54.72;33.47;;;13.30;99.90;;;;;;5057219;28;20057;-80
2023/09/03 01:11:04;;;;;;;52.30;31.63;;;13.20;99.90;;;;;;5050177;28;20048;-80
2023/09/03 01:14:12;;;;;;;43.78;31.55;;;13.20;99.90;;;;;;5055652;28;20045;-80
2023/09/03 01:16:55;;;;;;;55.75;33.53;;;13.20;99.90;;;;;;5022417;28;20041;-80
2023/09/03 01:19:24;;;;;;;111.60;39.72;;;13.30;99.90;;;;;;5067378;28;20051;-79
2023/09/03 01:22:16;;;;;;;239.77;47.50;;;13.40;99.90;;;;;;5025385;28;20294;-80
2023/09/03 01:24:49;;;;;;;332.05;59.13;;;13.40;99.90;;;;;;5050550;28;20623;-80
2023/09/03 01:27:31;;;;;;;132.13;42.17;;;13.40;99.90;;;;;;5058701;28;20655;-80
2023/09/03 01:29:59;;;;;;;242.73;51.10;;;13.40;99.90;;;;;;5042365;28;20566;-80
2023/09/03 01:32:28;;;;;;;207.48;52.03;;;13.40;99.90;;;;;;5069489;28;20048;-80
2023/09/03 01:34:56;;;;;;;244.85;58.05;;;13.40;99.90;;;;;;5065496;28;20052;-80
2023/09/03 01:37:24;;;;;;;212.65;53.85;;;13.60;99.90;;;;;;5051739;28;20066;-79
2023/09/03 01:39:51;;;;;;;234.48;58.30;;;13.40;99.90;;;;;;5051395;28;20044;-79
2023/09/03 01:42:19;;;;;;;90.93;37.83;;;13.30;99.90;;;;;;5045548;28;20457;-79
2023/09/03 01:44:45;;;;;;;88.95;37.80;;;13.30;99.90;;;;;;5051452;28;20043;-79
2023/09/03 01:47:32;;;;;;;118.63;42.45;;;13.40;99.90;;;;;;5067610;28;20044;-79
2023/09/03 01:50:29;;;;;;;93.07;39.13;;;13.30;99.90;;;;;;5054806;28;20045;-79
2023/09/03 01:53:21;;;;;;;87.70;38.65;;;13.30;99.90;;;;;;5063933;28;20214;-79
2023/09/03 01:55:54;;;;;;;119.97;43.90;;;13.30;99.90;;;;;;5062494;28;20060;-80
2023/09/03 01:58:26;;;;;;;94.90;38.70;;;13.20;99.90;;;;;;5067746;28;20044;-80
2023/09/03 02:00:55;;;;;;;102.28;40.38;;;13.20;99.90;;;;;;5057082;28;20048;-79
2023/09/03 02:03:26;;;;;;;99.07;40.55;;;13.30;99.90;;;;;;5047540;28;20053;-80
2023/09/03 02:05:53;;;;;;;135.35;44.20;;;13.20;99.90;;;;;;5049983;28;20044;-79
2023/09/03 02:08:20;;;;;;;98.30;38.60;;;13.10;99.90;;;;;;5063077;28;20052;-80
2023/09/03 02:10:47;;;;;;;121.53;42.40;;;13.10;99.90;;;;;;5070591;28;20040;-80
2023/09/03 02:13:19;;;;;;;269.15;55.00;;;13.20;99.90;;;;;;5067149;28;20539;-78
2023/09/03 02:15:46;;;;;;;110.97;43.22;;;13.20;99.90;;;;;;5064795;28;20512;-80
2023/09/03 02:18:16;;;;;;;107.47;43.20;;;13.30;99.90;;;;;;5026408;28;20051;-80
2023/09/03 02:20:42;;;;;;;100.10;41.33;;;13.20;99.90;;;;;;5057679;28;20036;-80
2023/09/03 02:23:09;;;;;;;192.38;50.90;;;13.20;99.90;;;;;;5036108;28;20045;-80
2023/09/03 02:25:36;;;;;;;174.02;51.30;;;13.20;99.90;;;;;;5050133;28;20090;-78
2023/09/03 02:28:03;;;;;;;178.77;48.80;;;13.10;99.90;;;;;;5059313;28;20044;-79
2023/09/03 02:30:31;;;;;;;113.63;40.00;;;13.00;99.90;;;;;;5057967;28;20048;-80
2023/09/03 02:32:58;;;;;;;176.40;49.95;;;12.80;99.90;;;;;;5040287;28;20056;-78
2023/09/03 02:35:26;;;;;;;185.70;50.63;;;12.70;99.90;;;;;;5038232;28;20060;-78
2023/09/03 02:37:52;;;;;;;145.45;45.90;;;12.60;99.90;;;;;;5051366;28;20036;-81
2023/09/03 02:40:20;;;;;;;195.52;52.20;;;12.70;99.90;;;;;;5036092;28;20052;-78
2023/09/03 02:42:46;;;;;;;180.00;49.92;;;12.60;99.90;;;;;;5047283;28;20051;-79
2023/09/03 02:45:13;;;;;;;154.95;47.55;;;12.60;99.90;;;;;;5058397;28;20052;-81
2023/09/03 02:47:40;;;;;;;216.40;51.50;;;12.50;99.90;;;;;;5065062;28;20055;-80
2023/09/03 02:50:07;;;;;;;219.35;55.67;;;12.40;99.90;;;;;;5051435;28;20078;-79
2023/09/03 02:52:34;;;;;;;155.80;49.55;;;12.40;99.90;;;;;;5063844;28;20062;-80
2023/09/03 02:55:01;;;;;;;118.32;43.17;;;12.50;99.90;;;;;;5063903;28;20045;-80
2023/09/03 02:57:27;;;;;;;206.95;49.75;;;12.60;99.90;;;;;;5059040;28;20904;-80
2023/09/03 02:59:54;;;;;;;199.60;50.85;;;12.60;99.90;;;;;;5064878;28;20044;-80
2023/09/03 03:02:22;;;;;;;307.15;55.13;;;12.50;99.90;;;;;;5044619;28;20033;-79
2023/09/03 03:04:48;;;;;;;332.73;59.38;;;12.60;99.90;;;;;;5067431;28;20051;-78
2023/09/03 03:07:15;;;;;;;260.35;55.42;;;12.60;99.90;;;;;;5064280;28;20055;-78
2023/09/03 03:09:47;;;;;;;252.50;56.42;;;12.60;99.90;;;;;;5043200;28;20469;-79
2023/09/03 03:12:14;;;;;;;248.73;57.10;;;12.50;99.90;;;;;;5034584;28;20121;-79
2023/09/03 03:14:41;;;;;;;366.50;65.90;;;12.50;99.90;;;;;;5063281;28;20091;-79
2023/09/03 03:17:08;;;;;;;281.45;59.85;;;12.40;99.90;;;;;;5054095;28;20124;-78
2023/09/03 03:19:35;;;;;;;253.90;59.35;;;12.50;99.90;;;;;;5042244;28;20048;-79
2023/09/03 03:22:02;;;;;;;301.45;60.58;;;12.50;99.90;;;;;;5047556;28;20045;-79
2023/09/03 03:24:30;;;;;;;333.83;63.90;;;12.40;99.90;;;;;;5040263;28;20048;-78
2023/09/03 03:26:57;;;;;;;315.65;61.30;;;12.50;99.90;;;;;;5041506;28;20067;-81
2023/09/03 03:29:25;;;;;;;293.88;58.13;;;12.60;99.90;;;;;;5044163;28;20052;-80
2023/09/03 03:31:51;;;;;;;244.77;56.00;;;12.50;99.90;;;;;;5028713;28;20032;-79
2023/09/03 03:34:19;;;;;;;323.15;60.22;;;12.50;99.90;;;;;;5047534;28;20044;-79
2023/09/03 03:36:48;;;;;;;360.83;65.55;;;12.40;99.90;;;;;;5038072;28;20082;-78
2023/09/03 03:39:15;;;;;;;321.48;59.33;;;12.40;99.90;;;;;;5040533;28;20040;-78
2023/09/03 03:41:42;;;;;;;387.50;68.95;;;12.30;99.90;;;;;;5024402;28;20416;-79
2023/09/03 03:44:14;;;;;;;332.52;63.58;;;12.00;99.90;;;;;;5045038;28;20054;-78
2023/09/03 03:46:41;;;;;;;332.80;66.78;;;11.90;99.90;;;;;;5041618;28;20051;-80
2023/09/03 03:49:08;;;;;;;545.95;82.53;;;11.90;99.90;;;;;;5057149;28;20289;-78
2023/09/03 03:51:37;;;;;;;466.50;75.78;;;12.00;99.90;;;;;;5041703;28;20108;-79
2023/09/03 03:54:05;;;;;;;481.40;77.53;;;11.80;99.90;;;;;;5044560;28;20075;-79
2023/09/03 03:56:33;;;;;;;374.40;70.13;;;11.60;99.90;;;;;;5056838;28;20037;-80
2023/09/03 03:59:00;;;;;;;318.38;66.07;;;11.60;99.90;;;;;;5050261;28;20092;-79
2023/09/03 04:01:27;;;;;;;381.15;72.68;;;11.60;99.90;;;;;;5060962;28;20036;-79
2023/09/03 04:03:55;;;;;;;267.95;63.97;;;11.50;99.90;;;;;;5033450;28;20033;-78
2023/09/03 04:06:22;;;;;;;324.60;72.70;;;11.50;99.90;;;;;;5015282;28;20095;-78
2023/09/03 04:08:49;;;;;;;346.63;74.57;;;11.60;99.90;;;;;;5065142;28;20045;-78
2023/09/03 04:11:19;;;;;;;335.92;74.32;;;11.50;99.90;;;;;;5074155;28;20044;-79
2023/09/03 04:13:46;;;;;;;219.63;66.05;;;11.50;99.90;;;;;;5052594;28;20403;-78
2023/09/03 04:16:19;;;;;;;189.23;63.00;;;11.70;99.90;;;;;;5022514;28;20044;-79
2023/09/03 04:18:51;;;;;;;254.57;67.13;;;11.90;99.90;;;;;;5045360;28;20044;-78
2023/09/03 04:21:18;;;;;;;282.90;69.82;;;11.90;99.90;;;;;;5046049;28;20139;-78
2023/09/03 04:23:45;;;;;;;342.98;75.63;;;11.80;99.90;;;;;;5027407;28;20051;-78
2023/09/03 04:26:12;;;;;;;446.38;82.10;;;11.80;99.90;;;;;;5026512;28;20110;-78
2023/09/03 04:28:47;;;;;;;426.90;79.93;;;11.60;99.90;;;;;;5027851;28;20431;-78
2023/09/03 04:31:14;;;;;;;370.25;75.85;;;11.70;99.90;;;;;;5051156;28;20045;-79
2023/09/03 04:33:41;;;;;;;473.05;80.75;;;11.70;99.90;;;;;;5032686;28;20054;-78
2023/09/03 04:36:10;;;;;;;510.08;83.35;;;11.60;99.90;;;;;;5027122;28;20140;-78
2023/09/03 04:38:37;;;;;;;366.75;73.50;;;11.70;99.90;;;;;;5066539;28;20045;-78
2023/09/03 04:41:05;;;;;;;431.15;76.40;;;11.80;99.90;;;;;;5072212;28;20052;-77
2023/09/03 04:43:37;;;;;;;409.65;75.63;;;11.60;99.90;;;;;;5037992;28;20625;-77
2023/09/03 04:46:05;;;;;;;320.20;69.72;;;11.50;99.90;;;;;;5038390;28;20036;-77
2023/09/03 04:48:32;;;;;;;317.17;67.45;;;11.50;99.90;;;;;;5019914;28;20044;-78
2023/09/03 04:51:03;;;;;;;275.65;63.90;;;11.60;99.90;;;;;;5032537;28;20337;-77
2023/09/03 04:53:34;;;;;;;259.90;62.08;;;11.60;99.90;;;;;;5037605;28;20144;-77
2023/09/03 04:56:02;;;;;;;276.15;61.30;;;11.50;99.90;;;;;;5055034;28;20044;-79
2023/09/03 04:58:30;;;;;;;270.15;63.40;;;11.50;99.90;;;;;;5043667;28;20044;-80
2023/09/03 05:00:58;;;;;;;203.20;58.95;;;11.40;99.90;;;;;;5032345;28;21305;-80
2023/09/03 05:03:27;;;;;;;178.95;52.13;;;11.20;99.90;;;;;;5038024;28;20045;-79
2023/09/03 05:05:54;;;;;;;226.77;55.30;;;11.10;99.90;;;;;;5044689;28;20044;-79
2023/09/03 05:08:21;;;;;;;221.52;50.30;;;11.10;99.90;;;;;;5043054;28;20049;-80
2023/09/03 05:10:49;;;;;;;228.05;51.28;;;10.90;99.90;;;;;;5045619;28;20118;-79
2023/09/03 05:13:16;;;;;;;294.38;57.78;;;10.80;99.90;;;;;;5050003;28;20047;-80
2023/09/03 05:15:43;;;;;;;374.42;65.50;;;10.80;99.90;;;;;;5031910;28;20048;-80
2023/09/03 05:18:10;;;;;;;326.15;65.22;;;10.80;99.90;;;;;;5029333;28;20083;-79
2023/09/03 05:20:38;;;;;;;340.55;64.95;;;10.90;99.90;;;;;;5055840;28;20060;-79
2023/09/03 05:23:06;;;;;;;171.25;51.58;;;10.90;99.90;;;;;;5033239;28;20056;-79
2023/09/03 05:25:33;;;;;;;308.85;61.08;;;10.90;99.90;;;;;;5052329;28;20421;-79
2023/09/03 05:28:01;;;;;;;161.85;50.63;;;10.80;99.90;;;;;;5047171;28;20300;-78
2023/09/03 05:30:28;;;;;;;162.60;52.30;;;10.90;99.90;;;;;;5052987;28;20048;-79
2023/09/03 05:32:57;;;;;;;134.05;51.53;;;11.00;99.90;;;;;;5053375;28;20045;-79
2023/09/03 05:35:25;;;;;;;121.00;48.15;;;11.00;99.90;;;;;;5032942;28;20051;-78
2023/09/03 05:37:52;;;;;;;117.10;46.33;;;11.00;99.90;;;;;;5023918;28;20079;-78
2023/09/03 05:40:18;;;;;;;116.53;47.25;;;11.10;99.90;;;;;;5048801;28;20080;-79
2023/09/03 05:42:48;;;;;;;103.90;45.10;;;11.20;99.90;;;;;;5054504;28;20029;-77
2023/09/03 05:45:15;;;;;;;96.35;44.53;;;11.20;99.90;;;;;;5052402;28;20041;-77
2023/09/03 05:47:42;;;;;;;108.55;44.80;;;11.20;99.90;;;;;;5052247;28;20304;-80
2023/09/03 05:50:09;;;;;;;101.93;44.83;;;11.20;99.90;;;;;;5044709;28;20052;-79
2023/09/03 05:52:36;;;;;;;97.05;41.40;;;11.20;99.90;;;;;;5048419;28;20101;-78
2023/09/03 05:55:03;;;;;;;105.50;44.88;;;11.10;99.90;;;;;;5013984;28;20087;-78
2023/09/03 05:57:31;;;;;;;105.72;45.33;;;11.10;99.90;;;;;;5045270;28;20033;-78
2023/09/03 05:59:58;;;;;;;102.97;44.88;;;11.20;99.90;;;;;;5049788;28;20040;-78
2023/09/03 06:02:26;;;;;;;89.30;43.88;;;11.20;99.90;;;;;;5049961;28;20297;-78
2023/09/03 06:04:52;;;;;;;89.35;44.65;;;11.40;99.90;;;;;;5044861;28;20220;-78
2023/09/03 06:07:20;;;;;;;93.38;43.97;;;11.40;99.90;;;;;;5035970;28;20040;-78
2023/09/03 06:09:47;;;;;;;78.97;43.67;;;11.60;99.90;;;;;;5032332;28;20055;-78
2023/09/03 06:12:14;;;;;;;77.82;43.92;;;11.80;99.90;;;;;;5045433;28;20072;-80
2023/09/03 06:14:41;;;;;;;78.25;41.03;;;12.00;99.90;;;;;;5046173;28;20036;-80
2023/09/03 06:17:07;;;;;;;72.65;41.05;;;12.10;99.90;;;;;;5060258;28;20409;-79
2023/09/03 06:19:34;;;;;;;72.03;41.55;;;12.20;99.90;;;;;;5047764;28;20048;-79
2023/09/03 06:22:01;;;;;;;64.57;37.42;;;12.30;99.90;;;;;;5067436;28;20052;-80
2023/09/03 06:24:28;;;;;;;56.20;33.47;;;12.40;99.90;;;;;;5042023;28;20051;-79
2023/09/03 06:26:57;;;;;;;56.05;33.28;;;12.30;99.90;;;;;;5045430;28;20513;-77
2023/09/03 06:29:25;;;;;;;46.00;30.90;;;12.30;99.90;;;;;;5063865;28;20213;-80
2023/09/03 06:31:52;;;;;;;44.25;29.45;;;12.20;99.90;;;;;;5043999;28;20072;-78
2023/09/03 06:34:20;;;;;;;44.90;29.60;;;12.30;99.90;;;;;;5054631;28;20044;-78
2023/09/03 06:36:47;;;;;;;44.35;29.33;;;12.40;99.90;;;;;;5062573;28;20143;-79
2023/09/03 06:39:13;;;;;;;40.88;28.83;;;12.30;99.90;;;;;;5051113;28;20379;-78
2023/09/03 06:41:40;;;;;;;37.10;26.63;;;12.50;99.90;;;;;;5061765;28;20040;-78
2023/09/03 06:44:07;;;;;;;41.88;30.30;;;12.70;99.90;;;;;;5067358;28;20028;-78
2023/09/03 06:46:34;;;;;;;34.80;27.50;;;12.70;99.90;;;;;;5041952;28;20041;-79
2023/09/03 06:49:01;;;;;;;33.72;29.05;;;13.00;99.90;;;;;;5071020;28;20045;-78
2023/09/03 06:51:27;;;;;;;40.00;29.10;;;13.10;99.90;;;;;;5047003;28;20079;-79
2023/09/03 06:53:54;;;;;;;42.75;31.90;;;13.30;99.90;;;;;;5069954;28;20079;-78
2023/09/03 06:56:21;;;;;;;48.55;35.65;;;13.40;99.90;;;;;;5063207;28;20074;-78
2023/09/03 06:58:50;;;;;;;49.85;35.67;;;13.40;99.90;;;;;;5056763;28;20042;-78
2023/09/03 07:01:20;;;;;;;59.38;41.30;;;13.50;99.90;;;;;;5067707;28;20460;-78
2023/09/03 07:03:46;;;;;;;50.10;37.53;;;13.70;99.90;;;;;;5055148;28;20255;-79
2023/09/03 07:06:13;;;;;;;51.13;37.10;;;13.80;99.90;;;;;;5071308;28;20310;-79
2023/09/03 07:08:40;;;;;;;44.22;32.80;;;13.90;99.90;;;;;;5041391;28;20068;-77
2023/09/03 07:11:07;;;;;;;47.45;34.85;;;14.20;99.90;;;;;;5064912;28;20575;-77
2023/09/03 07:13:34;;;;;;;45.83;33.17;;;14.40;99.90;;;;;;5037828;28;20115;-77
2023/09/03 07:16:04;;;;;;;37.45;29.45;;;14.70;99.90;;;;;;5033694;28;20059;-77
2023/09/03 07:18:31;;;;;;;38.00;27.00;;;15.00;99.90;;;;;;5058644;28;20045;-78
2023/09/03 07:21:05;;;;;;;32.70;26.33;;;15.40;99.90;;;;;;5049263;28;20040;-77
2023/09/03 07:23:33;;;;;;;36.85;26.40;;;15.80;99.90;;;;;;5063093;28;20071;-78
2023/09/03 07:26:06;;;;;;;33.13;25.73;;;16.10;99.90;;;;;;5045104;28;20075;-78
2023/09/03 07:28:33;;;;;;;31.17;25.13;;;16.30;99.90;;;;;;5028648;28;20037;-78
2023/09/03 07:31:00;;;;;;;30.08;25.92;;;16.50;99.90;;;;;;5060975;28;20049;-78
2023/09/03 07:33:27;;;;;;;29.80;26.75;;;16.80;99.90;;;;;;5052040;28;20041;-77
2023/09/03 07:35:55;;;;;;;28.08;25.38;;;17.00;99.90;;;;;;5051074;28;20533;-78
2023/09/03 07:38:25;;;;;;;29.58;26.45;;;17.00;99.90;;;;;;5049741;28;20036;-78
2023/09/03 07:40:51;;;;;;;27.98;25.52;;;17.30;99.90;;;;;;5037637;28;20707;-78
2023/09/03 07:43:18;;;;;;;25.95;23.75;;;17.70;99.90;;;;;;5046497;28;20440;-78
2023/09/03 07:45:46;;;;;;;26.67;24.35;;;17.90;99.90;;;;;;5061676;28;20104;-78
2023/09/03 07:48:13;;;;;;;26.10;23.92;;;18.10;99.90;;;;;;5040709;28;20040;-78
2023/09/03 07:50:40;;;;;;;25.52;23.08;;;18.00;99.90;;;;;;5038716;28;20036;-78
2023/09/03 07:53:06;;;;;;;25.52;23.40;;;18.10;99.90;;;;;;5048365;28;20040;-78
2023/09/03 07:55:33;;;;;;;26.10;24.00;;;18.00;99.90;;;;;;5049651;28;20051;-78
2023/09/03 07:58:00;;;;;;;26.42;24.33;;;18.20;99.90;;;;;;5059267;28;20040;-79
2023/09/03 08:00:27;;;;;;;24.98;23.02;;;18.10;99.90;;;;;;5054102;28;20041;-80
2023/09/03 08:02:54;;;;;;;25.42;23.58;;;18.00;99.90;;;;;;5052423;28;20075;-80
2023/09/03 08:05:22;;;;;;;23.95;22.05;;;18.30;99.90;;;;;;5019055;28;20115;-80
2023/09/03 08:07:49;;;;;;;23.77;22.08;;;18.80;99.90;;;;;;5052170;28;20037;-78
2023/09/03 08:10:20;;;;;;;28.42;26.33;;;19.20;99.90;;;;;;5041820;28;20048;-78
2023/09/03 08:12:47;;;;;;;29.33;26.83;;;19.40;99.90;;;;;;5042639;28;20036;-78
2023/09/03 08:15:14;;;;;;;29.00;26.80;;;19.40;99.90;;;;;;5029563;28;20127;-80
2023/09/03 08:17:49;;;;;;;29.98;27.75;;;19.60;99.90;;;;;;5064435;28;20041;-80
2023/09/03 08:20:16;;;;;;;30.98;28.58;;;19.80;99.90;;;;;;5047210;28;20044;-79
2023/09/03 08:22:44;;;;;;;29.63;27.35;;;19.80;99.90;;;;;;5041458;28;20029;-79
2023/09/03 08:25:11;;;;;;;27.50;25.60;;;19.60;99.90;;;;;;5054308;28;20072;-80
2023/09/03 08:27:38;;;;;;;29.55;27.40;;;19.50;99.90;;;;;;5058596;28;20039;-79
2023/09/03 08:30:06;;;;;;;29.42;27.08;;;19.30;99.90;;;;;;5060902;28;20052;-80
2023/09/03 08:32:33;;;;;;;28.25;26.25;;;19.20;99.90;;;;;;5072221;28;20065;-80
2023/09/03 08:35:00;;;;;;;29.45;27.08;;;19.40;99.90;;;;;;5068756;28;20107;-79
2023/09/03 08:37:28;;;;;;;27.63;25.63;;;19.70;99.90;;;;;;5047996;28;20033;-81
2023/09/03 08:39:55;;;;;;;28.05;26.02;;;20.00;99.90;;;;;;5058605;28;20048;-80
2023/09/03 08:42:23;;;;;;;27.55;25.48;;;20.20;99.90;;;;;;5062658;28;20044;-79
2023/09/03 08:44:53;;;;;;;28.23;26.33;;;20.20;99.90;;;;;;5055843;28;20055;-80
2023/09/03 08:47:20;;;;;;;25.70;23.88;;;20.10;99.90;;;;;;5072251;28;20083;-80
2023/09/03 08:49:47;;;;;;;29.13;26.52;;;20.20;99.90;;;;;;5072200;28;20346;-79
2023/09/03 08:52:16;;;;;;;26.33;24.55;;;19.80;99.90;;;;;;5064124;28;20166;-79
2023/09/03 08:54:42;;;;;;;25.77;24.15;;;19.80;99.90;;;;;;5034777;28;20050;-80
2023/09/03 08:57:09;;;;;;;25.40;23.73;;;20.00;99.90;;;;;;5053348;28;20112;-80
2023/09/03 08:59:36;;;;;;;26.05;24.25;;;20.00;99.90;;;;;;5054166;28;20051;-80
2023/09/03 09:02:11;;;;;;;29.35;27.27;;;20.10;99.90;;;;;;5037612;28;20185;-80
2023/09/03 09:04:38;;;;;;;26.65;24.98;;;19.90;99.90;;;;;;5065245;28;20083;-80
2023/09/03 09:07:06;;;;;;;26.40;24.58;;;19.90;99.90;;;;;;5052485;28;20040;-81
2023/09/03 09:09:35;;;;;;;26.85;24.95;;;19.90;99.90;;;;;;5068796;28;20044;-80
2023/09/03 09:12:17;;;;;;;27.10;25.38;;;20.00;99.90;;;;;;5064191;28;20052;-79
2023/09/03 09:14:47;;;;;;;26.65;24.85;;;20.10;99.90;;;;;;5054617;28;20105;-79
2023/09/03 09:17:14;;;;;;;27.40;25.40;;;20.40;99.90;;;;;;5045016;28;20302;-80
2023/09/03 09:19:41;;;;;;;27.35;25.55;;;20.30;99.90;;;;;;5066369;28;20094;-80
2023/09/03 09:22:07;;;;;;;27.42;25.73;;;20.70;99.90;;;;;;5040894;28;20043;-79
2023/09/03 09:24:42;;;;;;;27.02;25.15;;;20.50;99.90;;;;;;5057046;28;20045;-80
2023/09/03 09:27:13;;;;;;;;;;;20.80;99.90;;;;;;5051364;28;20040;-80
2023/09/03 09:29:40;;;;;;;26.08;24.50;;;21.40;99.90;;;;;;5053535;28;19924;-79
2023/09/03 09:32:25;;;;;;;25.73;23.98;;;21.70;99.90;;;;;;5048443;28;20105;-80
2023/09/03 09:34:52;;;;;;;25.85;24.15;;;21.70;99.90;;;;;;5061025;28;20058;-80
2023/09/03 09:37:18;;;;;;;25.80;24.15;;;21.50;99.90;;;;;;5045834;28;20636;-80
2023/09/03 09:39:46;;;;;;;23.55;21.95;;;21.50;99.90;;;;;;5042612;28;20040;-80
2023/09/03 09:42:18;;;;;;;24.75;23.35;;;21.10;99.90;;;;;;5064125;28;20455;-81
2023/09/03 09:44:49;;;;;;;26.38;24.67;;;20.70;99.90;;;;;;5064352;28;20191;-79
2023/09/03 09:47:16;;;;;;;25.02;23.63;;;20.40;99.90;;;;;;5049802;28;20041;-81
2023/09/03 09:49:45;;;;;;;25.88;24.13;;;20.50;99.90;;;;;;5042977;28;20041;-81
2023/09/03 09:52:14;;;;;;;25.88;24.33;;;20.70;99.90;;;;;;5048949;28;20044;-80
2023/09/03 09:54:46;;;;;;;25.48;24.02;;;20.80;99.90;;;;;;5042742;28;20036;-78
2023/09/03 09:57:15;;;;;;;24.60;23.30;;;21.00;99.90;;;;;;5038382;28;20495;-79
2023/09/03 09:59:43;;;;;;;26.58;25.00;;;21.30;99.90;;;;;;5035500;28;20041;-80
2023/09/03 10:02:15;;;;;;;24.75;23.38;;;21.30;99.90;;;;;;5068524;28;20047;-79
2023/09/03 10:04:43;;;;;;;26.27;24.73;;;21.30;99.90;;;;;;5054925;28;20259;-78
2023/09/03 10:07:11;;;;;;;25.15;23.73;;;21.30;99.90;;;;;;5039431;28;20057;-78
2023/09/03 10:09:38;;;;;;;25.98;24.38;;;21.50;99.90;;;;;;5033740;28;20122;-79
2023/09/03 10:12:07;;;;;;;26.33;24.90;;;21.60;99.90;;;;;;5034131;28;20047;-78
2023/09/03 10:14:35;;;;;;;26.88;25.42;;;21.80;99.90;;;;;;5027745;28;20415;-80
2023/09/03 10:17:04;;;;;;;27.23;25.77;;;21.80;99.90;;;;;;5042863;28;20036;-78
2023/09/03 10:19:53;;;;;;;26.55;25.15;;;22.00;99.90;;;;;;5057835;28;20044;-80
2023/09/03 10:22:23;;;;;;;27.45;25.85;;;21.60;99.90;;;;;;5051608;28;20041;-81
2023/09/03 10:24:58;;;;;;;25.98;24.40;;;21.60;99.90;;;;;;5040871;28;20396;-78
2023/09/03 10:27:29;;;;;;;25.98;24.48;;;21.90;99.90;;;;;;5029632;28;20051;-79
2023/09/03 10:29:58;;;;;;;26.90;25.40;;;21.80;99.90;;;;;;5049372;28;20049;-79
2023/09/03 10:32:27;;;;;;;28.85;26.77;;;21.70;99.90;;;;;;5043220;28;20045;-80
2023/09/03 10:34:56;;;;;;;28.15;26.50;;;21.80;99.90;;;;;;5042233;28;20051;-81
2023/09/03 10:37:36;;;;;;;27.50;26.00;;;21.90;99.90;;;;;;5029781;28;20075;-80
2023/09/03 10:40:27;;;;;;;29.75;27.98;;;22.20;99.90;;;;;;5059901;28;20257;-80
2023/09/03 10:43:14;;;;;;;27.90;26.50;;;22.30;99.90;;;;;;5056054;28;20420;-79
2023/09/03 10:46:05;;;;;;;28.58;26.98;;;22.30;99.90;;;;;;5026043;28;20129;-79
2023/09/03 10:48:34;;;;;;;28.95;27.35;;;22.50;99.90;;;;;;5060882;28;20127;-81
2023/09/03 10:51:02;;;;;;;29.52;27.83;;;22.30;99.90;;;;;;5048521;28;20139;-80
2023/09/03 10:53:39;;;;;;;30.08;28.23;;;22.10;99.90;;;;;;5068903;28;20038;-81
2023/09/03 10:56:14;;;;;;;30.42;28.73;;;21.90;99.90;;;;;;5045670;28;20052;-81
2023/09/03 10:59:01;;;;;;;30.98;29.05;;;22.00;99.90;;;;;;5042403;28;20265;-81
2023/09/03 11:01:33;;;;;;;32.83;30.80;;;22.30;99.90;;;;;;5041164;28;20049;-80
2023/09/03 11:04:02;;;;;;;31.88;30.00;;;22.20;99.90;;;;;;5039953;28;20041;-81
2023/09/03 11:06:31;;;;;;;31.98;29.88;;;22.40;99.90;;;;;;5028537;28;20041;-80
2023/09/03 11:09:04;;;;;;;34.00;31.73;;;22.30;99.90;;;;;;5054876;28;20090;-81
2023/09/03 11:11:35;;;;;;;31.55;29.45;;;22.30;99.90;;;;;;5036008;28;20123;-81
2023/09/03 11:14:03;;;;;;;31.13;29.23;;;22.40;99.90;;;;;;5059326;28;20059;-80
2023/09/03 11:16:32;;;;;;;31.05;28.77;;;22.30;99.90;;;;;;5049977;28;20032;-79
2023/09/03 11:19:03;;;;;;;31.05;29.05;;;22.20;99.90;;;;;;5051954;28;20049;-79
2023/09/03 11:21:30;;;;;;;30.52;28.73;;;22.20;99.90;;;;;;5014831;28;20052;-80
2023/09/03 11:24:02;;;;;;;29.05;27.27;;;22.30;99.90;;;;;;5045246;28;20113;-80
2023/09/03 11:26:34;;;;;;;29.95;28.15;;;22.40;99.90;;;;;;5017304;28;20079;-82
2023/09/03 11:29:01;;;;;;;29.00;27.38;;;22.50;99.90;;;;;;5040670;28;20098;-81
2023/09/03 11:31:29;;;;;;;29.77;27.85;;;22.40;99.90;;;;;;5031987;28;20080;-80
2023/09/03 11:33:56;;;;;;;30.17;28.27;;;22.60;99.90;;;;;;5038531;28;20049;-78
2023/09/03 11:36:26;;;;;;;30.77;29.02;;;22.40;99.90;;;;;;5040611;28;20040;-79
2023/09/03 11:38:55;;;;;;;30.02;28.33;;;22.20;99.90;;;;;;5047935;28;20039;-77
2023/09/03 11:41:22;;;;;;;29.60;27.90;;;22.20;99.90;;;;;;5044736;28;20498;-80
2023/09/03 11:43:49;;;;;;;29.08;27.38;;;22.40;99.90;;;;;;5029249;28;20354;-80
2023/09/03 11:46:17;;;;;;;29.58;27.88;;;22.70;99.90;;;;;;5028903;28;20249;-81
2023/09/03 11:48:50;;;;;;;29.77;28.17;;;22.60;99.90;;;;;;5044523;28;20044;-81
2023/09/03 11:51:28;;;;;;;29.35;27.67;;;22.40;99.90;;;;;;5056025;28;20258;-80
2023/09/03 11:53:57;;;;;;;29.40;27.73;;;22.40;99.90;;;;;;5045253;28;20790;-80
2023/09/03 11:56:25;;;;;;;29.40;27.80;;;22.50;99.90;;;;;;5025982;28;21313;-80
2023/09/03 11:58:58;;;;;;;30.42;28.73;;;22.50;99.90;;;;;;5040587;28;20059;-79
2023/09/03 12:01:25;;;;;;;31.50;29.60;;;22.60;99.90;;;;;;5047355;28;20041;-80
2023/09/03 12:03:52;;;;;;;29.95;28.15;;;22.60;99.90;;;;;;5036366;28;20414;-79
2023/09/03 12:06:20;;;;;;;28.10;26.50;;;22.60;99.90;;;;;;5010022;28;20045;-78
2023/09/03 12:08:47;;;;;;;28.45;26.95;;;22.70;99.90;;;;;;5062568;28;20651;-79
2023/09/03 12:11:14;;;;;;;29.88;28.15;;;22.80;99.90;;;;;;5028467;28;20045;-79
2023/09/03 12:13:41;;;;;;;29.15;27.45;;;22.90;99.90;;;;;;5061053;28;20052;-80
2023/09/03 12:16:10;;;;;;;28.42;26.65;;;22.60;99.90;;;;;;5040075;28;20067;-79
2023/09/03 12:18:38;;;;;;;29.10;27.60;;;22.80;99.90;;;;;;5056475;28;20049;-79
2023/09/03 12:21:07;;;;;;;28.92;27.35;;;22.50;99.90;;;;;;5047504;28;20111;-79
2023/09/03 12:23:35;;;;;;;28.70;27.10;;;22.40;99.90;;;;;;5039286;28;20056;-79
2023/09/03 12:26:03;;;;;;;27.52;25.88;;;22.50;99.90;;;;;;5012498;28;20754;-79
2023/09/03 12:28:36;;;;;;;28.92;27.23;;;22.60;99.90;;;;;;5035876;28;20055;-80
2023/09/03 12:31:04;;;;;;;28.00;26.38;;;22.60;99.90;;;;;;5042163;28;20071;-80
2023/09/03 12:33:45;;;;;;;27.65;26.00;;;22.60;99.90;;;;;;5058303;28;20493;-80